Time;durP1;ratioP1;P1;durP2;ratioP2;P2;SDS_P1;SDS_P2;PMS_P1;PMS_P2;Temp;Humidity;BMP_temperature;BMP_pressure;BME280_temperature;BME280_humidity;BME280_pressure;Samples;Min_cycle;Max_cycle;Signal;HPM_P1;HPM_P2
2022/12/07 00:01:40;;;;;;;5.32;4.40;;;16.20;47.10;;;;;;5086061;28;45281;-73
2022/12/07 00:04:08;;;;;;;6.15;4.78;;;16.10;47.70;;;;;;5084945;28;45265;-73
2022/12/07 00:06:35;;;;;;;5.78;4.85;;;16.10;47.10;;;;;;5086122;28;45403;-73
2022/12/07 00:09:02;;;;;;;5.07;4.57;;;16.10;47.20;;;;;;5085365;28;45526;-73
2022/12/07 00:11:29;;;;;;;5.47;4.65;;;16.10;47.20;;;;;;5086077;28;45488;-73
2022/12/07 00:13:58;;;;;;;6.22;4.80;;;16.00;47.20;;;;;;5084648;28;45335;-72
2022/12/07 00:16:26;;;;;;;5.88;4.60;;;16.00;47.90;;;;;;5096658;27;45297;-73
2022/12/07 00:18:53;;;;;;;9.63;4.95;;;16.00;47.40;;;;;;5086029;28;45312;-72
2022/12/07 00:21:21;;;;;;;5.25;4.68;;;16.00;47.40;;;;;;5085870;28;45285;-73
2022/12/07 00:23:48;;;;;;;5.07;4.50;;;16.00;47.30;;;;;;5086494;28;45177;-73
2022/12/07 00:26:16;;;;;;;5.50;4.65;;;16.00;47.20;;;;;;5083766;28;45468;-73
2022/12/07 00:28:46;;;;;;;5.28;4.65;;;16.10;47.20;;;;;;5066050;28;45599;-72
2022/12/07 00:31:14;;;;;;;5.85;4.88;;;16.20;47.00;;;;;;5072595;28;45241;-73
2022/12/07 00:33:41;;;;;;;5.90;5.25;;;16.20;46.90;;;;;;5082135;28;45338;-72
2022/12/07 00:36:10;;;;;;;6.20;5.35;;;16.30;46.80;;;;;;5089672;28;45388;-72
2022/12/07 00:38:37;;;;;;;6.13;4.68;;;16.40;46.70;;;;;;5089454;28;46425;-72
2022/12/07 00:41:05;;;;;;;7.63;5.50;;;16.40;46.60;;;;;;5089526;28;45231;-72
2022/12/07 00:43:32;;;;;;;6.35;4.97;;;16.50;46.50;;;;;;5089706;28;45333;-72
2022/12/07 00:45:59;;;;;;;7.18;5.63;;;16.50;46.40;;;;;;5090561;27;45319;-72
2022/12/07 00:48:27;;;;;;;6.03;5.20;;;16.50;46.40;;;;;;5109747;27;45305;-72
2022/12/07 00:50:54;;;;;;;5.43;4.60;;;16.50;46.30;;;;;;5109176;27;45343;-72
2022/12/07 00:53:21;;;;;;;6.63;5.05;;;16.60;46.30;;;;;;5109695;27;45334;-73
2022/12/07 00:55:48;;;;;;;5.78;4.70;;;16.50;46.30;;;;;;5109888;27;45375;-73
2022/12/07 00:58:15;;;;;;;5.90;5.00;;;16.60;46.90;;;;;;5109564;27;45737;-72
2022/12/07 01:00:42;;;;;;;6.75;5.72;;;16.60;46.30;;;;;;5109562;27;45205;-72
2022/12/07 01:03:10;;;;;;;5.38;4.88;;;16.50;46.20;;;;;;5109911;27;45261;-72
2022/12/07 01:05:38;;;;;;;7.80;5.30;;;16.50;46.20;;;;;;5109784;27;45466;-72
2022/12/07 01:08:06;;;;;;;7.97;5.18;;;16.50;46.30;;;;;;5109408;27;45768;-72
2022/12/07 01:10:33;;;;;;;7.53;5.35;;;16.50;46.20;;;;;;5109413;27;45205;-73
2022/12/07 01:13:00;;;;;;;6.38;5.30;;;16.50;46.30;;;;;;5109711;27;45191;-72
2022/12/07 01:15:26;;;;;;;6.13;5.40;;;16.50;46.30;;;;;;5099226;27;45324;-72
2022/12/07 01:17:54;;;;;;;7.25;5.25;;;16.50;46.40;;;;;;5088936;28;46577;-72
2022/12/07 01:20:21;;;;;;;5.63;4.82;;;16.50;46.40;;;;;;5089005;28;45388;-72
2022/12/07 01:22:49;;;;;;;6.65;5.10;;;16.40;46.40;;;;;;5089006;28;45176;-72
2022/12/07 01:25:16;;;;;;;6.68;4.85;;;16.40;46.40;;;;;;5089073;28;45501;-72
2022/12/07 01:27:43;;;;;;;6.90;5.22;;;16.40;46.50;;;;;;5088833;28;45938;-72
2022/12/07 01:30:12;;;;;;;6.53;5.57;;;16.40;46.50;;;;;;5088580;28;45396;-72
2022/12/07 01:32:39;;;;;;;6.43;5.38;;;16.40;46.50;;;;;;5088894;28;45258;-72
2022/12/07 01:35:06;;;;;;;7.45;5.10;;;16.30;46.50;;;;;;5088467;28;45185;-72
2022/12/07 01:37:36;;;;;;;7.10;5.40;;;16.30;46.60;;;;;;5088244;28;46613;-72
2022/12/07 01:40:05;;;;;;;5.90;5.00;;;16.30;46.60;;;;;;5088628;28;45258;-72
2022/12/07 01:42:32;;;;;;;6.88;4.80;;;16.30;46.70;;;;;;5088538;28;45327;-72
2022/12/07 01:45:44;;;;;;;5.80;4.97;;;16.30;46.80;;;;;;5088412;28;45486;-72
2022/12/07 01:48:12;;;;;;;7.68;5.55;;;16.20;46.80;;;;;;5108328;27;47333;-72
2022/12/07 01:50:39;;;;;;;6.75;5.65;;;16.20;46.90;;;;;;5108225;27;45306;-72
2022/12/07 01:53:07;;;;;;;7.60;5.40;;;16.20;46.90;;;;;;5109000;27;45343;-72
2022/12/07 01:55:35;;;;;;;6.68;5.35;;;16.10;46.90;;;;;;5108819;27;45304;-72
2022/12/07 01:58:02;;;;;;;7.60;5.30;;;16.10;47.00;;;;;;5108816;27;45433;-72
2022/12/07 02:00:29;;;;;;;7.45;5.80;;;16.10;47.10;;;;;;5108519;27;45273;-72
2022/12/07 02:02:58;;;;;;;7.25;5.75;;;16.10;47.20;;;;;;5108884;27;45241;-72
2022/12/07 02:05:25;;;;;;;8.20;6.00;;;16.10;47.20;;;;;;5108772;27;45250;-72
2022/12/07 02:07:53;;;;;;;6.75;4.95;;;16.00;47.20;;;;;;5108780;27;46740;-72
2022/12/07 02:10:22;;;;;;;7.18;4.95;;;16.00;47.30;;;;;;5108416;27;45242;-72
2022/12/07 02:12:51;;;;;;;6.63;5.55;;;16.00;47.30;;;;;;5108856;27;45207;-72
2022/12/07 02:15:18;;;;;;;5.78;5.00;;;16.00;47.40;;;;;;5108519;27;45384;-72
2022/12/07 02:17:48;;;;;;;6.18;5.13;;;15.90;47.40;;;;;;5108451;27;45333;-72
2022/12/07 02:20:22;;;;;;;7.45;5.15;;;15.90;47.80;;;;;;5108292;27;45268;-72
2022/12/07 02:23:31;;;;;;;6.38;5.25;;;16.00;47.40;;;;;;5108349;27;45262;-72
2022/12/07 02:26:52;;;;;;;7.90;5.32;;;16.00;47.30;;;;;;5079082;27;45414;-72
2022/12/07 02:29:23;;;;;;;5.53;4.75;;;16.10;47.20;;;;;;5108106;27;45370;-72
2022/12/07 02:31:55;;;;;;;7.30;4.55;;;16.20;47.10;;;;;;5108379;27;45370;-72
2022/12/07 02:34:25;;;;;;;5.78;4.90;;;16.30;47.10;;;;;;5108654;27;45173;-72
2022/12/07 02:36:55;;;;;;;5.85;4.90;;;16.30;47.00;;;;;;5108422;27;45380;-72
2022/12/07 02:39:26;;;;;;;5.20;4.53;;;16.40;47.00;;;;;;5108308;27;46376;-72
2022/12/07 02:41:53;;;;;;;6.63;5.32;;;16.40;46.90;;;;;;5108144;27;45151;-72
2022/12/07 02:44:24;;;;;;;5.55;4.22;;;16.50;46.90;;;;;;5108157;27;45229;-72
2022/12/07 02:46:54;;;;;;;5.70;4.88;;;16.50;46.90;;;;;;5099787;27;45322;-72
2022/12/07 02:49:21;;;;;;;5.72;4.68;;;16.50;46.90;;;;;;5087500;28;45352;-72
2022/12/07 02:51:48;;;;;;;5.28;4.38;;;16.50;47.50;;;;;;5087258;28;45332;-72
2022/12/07 02:54:16;;;;;;;5.75;4.72;;;16.50;47.50;;;;;;5087441;28;45298;-72
2022/12/07 02:56:46;;;;;;;5.80;4.57;;;16.50;46.90;;;;;;5087147;28;45229;-72
2022/12/07 02:59:17;;;;;;;4.85;4.35;;;16.50;46.90;;;;;;5085626;28;46430;-72
2022/12/07 03:01:49;;;;;;;5.00;4.15;;;16.50;46.90;;;;;;5086684;28;45119;-72
2022/12/07 03:04:25;;;;;;;5.22;4.18;;;16.50;46.90;;;;;;5086988;28;45407;-72
2022/12/07 03:06:54;;;;;;;6.28;4.55;;;16.50;47.50;;;;;;5086999;28;45178;-72
2022/12/07 03:09:22;;;;;;;4.70;4.20;;;16.50;47.00;;;;;;5087014;28;45524;-72
2022/12/07 03:11:51;;;;;;;5.22;4.60;;;16.50;47.00;;;;;;5086783;28;45320;-72
2022/12/07 03:14:19;;;;;;;6.63;4.55;;;16.40;47.00;;;;;;5087266;27;45274;-72
2022/12/07 03:16:50;;;;;;;5.32;4.25;;;16.40;47.00;;;;;;5107300;27;45483;-72
2022/12/07 03:19:18;;;;;;;5.00;3.90;;;16.40;47.00;;;;;;5107006;27;45320;-72
2022/12/07 03:21:48;;;;;;;5.20;4.70;;;16.40;47.10;;;;;;5107067;27;45138;-72
2022/12/07 03:24:16;;;;;;;4.68;4.28;;;16.40;47.10;;;;;;5106652;27;45419;-72
2022/12/07 03:26:45;;;;;;;5.18;4.35;;;16.30;47.10;;;;;;5107511;27;45501;-72
2022/12/07 03:29:15;;;;;;;4.72;4.22;;;16.30;47.20;;;;;;5106903;27;45210;-72
2022/12/07 03:31:44;;;;;;;4.70;4.13;;;16.30;47.20;;;;;;5107038;27;45305;-72
2022/12/07 03:34:14;;;;;;;5.07;4.50;;;16.30;47.30;;;;;;5107109;27;45292;-72
2022/12/07 03:36:42;;;;;;;4.57;4.00;;;16.30;47.40;;;;;;5106963;27;45283;-72
2022/12/07 03:39:18;;;;;;;4.97;3.92;;;16.20;47.40;;;;;;5106832;27;45578;-72
2022/12/07 03:41:45;;;;;;;6.07;4.03;;;16.20;47.40;;;;;;5106738;27;45304;-72
2022/12/07 03:44:13;;;;;;;5.63;4.43;;;16.20;47.50;;;;;;5106951;27;45235;-72
2022/12/07 03:46:43;;;;;;;5.22;4.43;;;16.20;47.50;;;;;;5099905;27;45305;-72
2022/12/07 03:49:20;;;;;;;4.57;3.78;;;16.10;47.60;;;;;;5086100;28;45457;-72
2022/12/07 03:51:51;;;;;;;4.70;4.07;;;16.10;47.60;;;;;;5085785;28;45221;-72
2022/12/07 03:54:19;;;;;;;4.65;4.03;;;16.10;47.70;;;;;;5086431;28;45316;-72
2022/12/07 03:56:46;;;;;;;4.78;3.83;;;16.10;47.70;;;;;;5086363;28;45141;-72
2022/12/07 03:59:13;;;;;;;4.32;3.80;;;16.00;47.70;;;;;;5086258;28;46438;-72
2022/12/07 04:01:43;;;;;;;4.32;3.92;;;16.00;47.70;;;;;;5086265;28;45448;-72
2022/12/07 04:04:09;;;;;;;4.55;3.78;;;16.00;47.80;;;;;;5086251;28;45186;-72
2022/12/07 04:06:38;;;;;;;4.53;4.13;;;16.00;47.90;;;;;;5086144;28;45217;-72
2022/12/07 04:09:05;;;;;;;4.88;3.95;;;15.90;47.90;;;;;;5086547;27;45492;-72
2022/12/07 04:11:32;;;;;;;4.97;4.22;;;15.90;47.90;;;;;;5089451;28;45458;-72
2022/12/07 04:16:43;;;;;;;5.30;4.53;;;15.90;48.00;;;;;;5107715;27;45246;-72
2022/12/07 04:19:10;;;;;;;4.82;4.03;;;15.90;47.90;;;;;;5109845;27;45211;-72
2022/12/07 04:21:38;;;;;;;4.68;3.97;;;16.00;47.80;;;;;;5110206;27;45195;-72
2022/12/07 04:24:06;;;;;;;4.32;3.83;;;16.10;47.70;;;;;;5109705;27;45296;-72
2022/12/07 04:26:33;;;;;;;5.13;4.07;;;16.10;47.50;;;;;;5109817;27;45415;-72
2022/12/07 04:29:00;;;;;;;5.50;4.13;;;16.20;47.40;;;;;;5109797;27;45215;-72
2022/12/07 04:31:27;;;;;;;6.15;4.30;;;16.30;47.30;;;;;;5109797;27;45303;-72
2022/12/07 04:33:53;;;;;;;4.22;3.83;;;16.40;47.20;;;;;;5110084;27;45542;-72
2022/12/07 04:36:20;;;;;;;5.82;3.80;;;16.40;47.10;;;;;;5109635;27;45538;-72
2022/12/07 04:38:48;;;;;;;3.83;3.42;;;16.50;47.10;;;;;;5109475;27;46982;-72
2022/12/07 04:41:15;;;;;;;4.28;3.88;;;16.50;47.00;;;;;;5109712;27;45265;-72
2022/12/07 04:43:42;;;;;;;3.90;3.50;;;16.50;46.90;;;;;;5109708;27;45215;-72
2022/12/07 04:46:10;;;;;;;3.90;3.50;;;16.50;46.90;;;;;;5107090;27;45419;-72
2022/12/07 04:48:37;;;;;;;6.05;4.38;;;16.50;46.80;;;;;;5089102;28;45448;-72
2022/12/07 04:51:04;;;;;;;4.80;3.55;;;16.50;46.80;;;;;;5088740;28;45135;-72
2022/12/07 04:53:31;;;;;;;4.68;3.97;;;16.50;46.80;;;;;;5089233;28;45243;-72
2022/12/07 04:56:00;;;;;;;4.57;4.05;;;16.60;46.80;;;;;;5089183;28;45182;-72
2022/12/07 04:58:27;;;;;;;4.57;3.83;;;16.50;46.70;;;;;;5088904;28;45660;-72
2022/12/07 05:00:55;;;;;;;4.20;3.60;;;16.50;46.80;;;;;;5088780;28;45256;-72
2022/12/07 05:03:22;;;;;;;5.03;3.65;;;16.50;46.80;;;;;;5088965;28;45285;-72
2022/12/07 05:05:49;;;;;;;4.88;4.10;;;16.50;46.80;;;;;;5089146;28;45455;-72
2022/12/07 05:08:16;;;;;;;4.45;4.05;;;16.50;46.70;;;;;;5088137;28;46541;-72
2022/12/07 05:10:42;;;;;;;3.97;3.58;;;16.50;46.80;;;;;;5088862;28;45293;-72
2022/12/07 05:13:11;;;;;;;5.38;3.95;;;16.50;46.70;;;;;;5089098;28;45176;-72
2022/12/07 05:15:38;;;;;;;4.18;3.78;;;16.40;46.70;;;;;;5100967;27;45444;-72
2022/12/07 05:18:05;;;;;;;4.32;3.22;;;16.40;46.70;;;;;;5109263;27;45383;-72
2022/12/07 05:20:32;;;;;;;3.30;3.00;;;16.40;46.70;;;;;;5108548;27;45267;-72
2022/12/07 05:22:59;;;;;;;4.00;3.40;;;16.40;46.80;;;;;;5108734;27;45371;-71
2022/12/07 05:25:26;;;;;;;3.85;3.08;;;16.30;46.80;;;;;;5109228;27;45125;-72
2022/12/07 05:27:53;;;;;;;3.35;3.05;;;16.30;46.80;;;;;;5108993;27;45217;-72
2022/12/07 05:30:21;;;;;;;3.30;2.80;;;16.30;46.80;;;;;;5109056;27;45269;-72
2022/12/07 05:32:48;;;;;;;3.10;2.78;;;16.30;46.80;;;;;;5109266;27;45220;-72
2022/12/07 05:35:15;;;;;;;3.13;2.83;;;16.30;46.90;;;;;;5108992;27;45189;-72
2022/12/07 05:37:42;;;;;;;2.55;2.35;;;16.20;46.80;;;;;;5108736;27;46823;-72
2022/12/07 05:40:10;;;;;;;2.78;2.47;;;16.20;46.90;;;;;;5108915;27;45205;-72
2022/12/07 05:42:37;;;;;;;2.80;2.50;;;16.20;47.00;;;;;;5108914;27;45311;-72
2022/12/07 05:45:04;;;;;;;3.10;2.63;;;16.20;47.00;;;;;;5108953;27;45558;-72
2022/12/07 05:47:32;;;;;;;2.72;2.35;;;16.10;47.10;;;;;;5094459;27;45918;-72
2022/12/07 05:49:59;;;;;;;3.25;2.55;;;16.10;47.70;;;;;;5088111;28;45309;-72
2022/12/07 05:52:26;;;;;;;2.58;2.38;;;16.10;47.20;;;;;;5087146;28;45320;-72
2022/12/07 05:54:53;;;;;;;2.90;2.60;;;16.00;47.20;;;;;;5088311;28;45244;-72
2022/12/07 05:57:20;;;;;;;2.90;2.63;;;16.00;47.20;;;;;;5087904;28;45695;-72
2022/12/07 05:59:46;;;;;;;3.10;2.70;;;16.00;47.30;;;;;;5087917;28;45160;-72
2022/12/07 06:02:14;;;;;;;2.28;2.05;;;16.00;47.40;;;;;;5088152;28;45183;-72
2022/12/07 06:04:43;;;;;;;2.67;2.47;;;15.90;47.40;;;;;;5088184;28;45282;-72
2022/12/07 06:07:10;;;;;;;3.03;2.72;;;15.90;47.40;;;;;;5087680;28;45567;-72
2022/12/07 06:09:37;;;;;;;2.72;2.50;;;15.90;47.40;;;;;;5088028;28;45144;-72
2022/12/07 06:14:49;;;;;;;2.60;2.40;;;15.90;47.30;;;;;;5090553;27;45147;-72
2022/12/07 06:17:16;;;;;;;2.55;2.35;;;15.90;47.20;;;;;;5108092;27;45572;-72
2022/12/07 06:19:44;;;;;;;2.95;2.40;;;16.00;47.10;;;;;;5108219;27;45330;-72
2022/12/07 06:22:11;;;;;;;2.97;2.10;;;16.10;46.90;;;;;;5108248;27;45323;-72
2022/12/07 06:24:38;;;;;;;2.58;2.38;;;16.10;46.90;;;;;;5108343;27;45337;-72
2022/12/07 06:27:05;;;;;;;2.30;1.95;;;16.20;46.70;;;;;;5107765;27;45299;-72
2022/12/07 06:29:32;;;;;;;3.08;2.33;;;16.20;46.50;;;;;;5108175;27;45313;-72
2022/12/07 06:31:59;;;;;;;2.83;2.00;;;16.30;46.40;;;;;;5107971;27;45311;-72
2022/12/07 06:34:26;;;;;;;3.10;2.50;;;16.30;46.30;;;;;;5108153;27;45320;-72
2022/12/07 06:36:54;;;;;;;2.03;1.92;;;16.30;46.20;;;;;;5107779;27;46987;-72
2022/12/07 06:39:22;;;;;;;2.60;2.33;;;16.40;46.10;;;;;;5107794;27;45312;-72
2022/12/07 06:41:51;;;;;;;2.25;2.05;;;16.40;46.00;;;;;;5107510;27;45310;-72
2022/12/07 06:44:18;;;;;;;2.95;2.05;;;16.40;46.00;;;;;;5108131;27;45268;-72
2022/12/07 06:46:45;;;;;;;2.28;1.95;;;16.40;46.00;;;;;;5100106;27;46603;-72
2022/12/07 06:49:12;;;;;;;2.25;2.05;;;16.40;46.10;;;;;;5087402;28;45316;-72
2022/12/07 06:51:41;;;;;;;2.72;2.00;;;16.40;46.30;;;;;;5086966;28;45265;-72
2022/12/07 06:54:09;;;;;;;2.90;2.35;;;16.40;46.20;;;;;;5087415;28;45178;-72
2022/12/07 06:56:36;;;;;;;3.63;2.38;;;16.30;46.00;;;;;;5086753;28;46551;-72
2022/12/07 06:59:03;;;;;;;2.67;2.42;;;16.30;46.10;;;;;;5087160;28;45331;-72
2022/12/07 07:01:30;;;;;;;3.00;2.53;;;16.30;46.70;;;;;;5087136;28;45162;-72
2022/12/07 07:03:57;;;;;;;4.70;3.08;;;16.30;46.20;;;;;;5087459;28;45384;-72
2022/12/07 07:06:23;;;;;;;4.55;3.03;;;16.30;46.70;;;;;;5086625;28;45995;-72
2022/12/07 07:08:50;;;;;;;3.25;2.67;;;16.20;46.10;;;;;;5086868;28;45351;-72
2022/12/07 07:11:18;;;;;;;3.30;2.97;;;16.20;46.20;;;;;;5087204;28;45272;-72
2022/12/07 07:13:45;;;;;;;4.90;3.20;;;16.20;46.20;;;;;;5087394;28;45206;-72
2022/12/07 07:16:12;;;;;;;3.72;3.38;;;16.20;46.20;;;;;;5103506;27;45336;-72
2022/12/07 07:18:39;;;;;;;4.93;3.53;;;16.10;46.30;;;;;;5107554;27;45186;-72
2022/12/07 07:21:06;;;;;;;4.15;3.38;;;16.10;46.40;;;;;;5107704;27;45315;-72
2022/12/07 07:23:33;;;;;;;4.32;3.30;;;16.10;46.40;;;;;;5107643;27;45237;-73
2022/12/07 07:26:00;;;;;;;4.95;3.67;;;16.00;46.40;;;;;;5106942;27;47631;-72
2022/12/07 07:28:28;;;;;;;5.45;3.85;;;16.00;46.50;;;;;;5107172;27;45187;-72
2022/12/07 07:30:55;;;;;;;4.53;3.78;;;16.00;46.50;;;;;;5107568;27;45391;-72
2022/12/07 07:33:22;;;;;;;4.80;3.55;;;15.90;46.50;;;;;;5107633;27;45327;-72
2022/12/07 07:35:49;;;;;;;5.20;4.20;;;15.90;46.60;;;;;;5107193;27;45466;-72
2022/12/07 07:38:16;;;;;;;4.25;3.47;;;15.90;46.60;;;;;;5107387;27;45250;-72
2022/12/07 07:40:43;;;;;;;3.88;3.47;;;15.80;46.50;;;;;;5107090;27;45208;-72
2022/12/07 07:43:10;;;;;;;4.55;3.70;;;15.80;46.60;;;;;;5107364;27;45169;-72
2022/12/07 07:45:38;;;;;;;4.47;3.58;;;15.80;46.60;;;;;;5105957;27;46780;-72
2022/12/07 07:48:05;;;;;;;3.60;3.15;;;15.80;46.70;;;;;;5087855;27;45462;-72
2022/12/07 07:50:32;;;;;;;4.97;2.88;;;15.80;46.60;;;;;;5086712;28;45201;-72
2022/12/07 07:52:59;;;;;;;3.45;2.97;;;15.80;46.50;;;;;;5087084;28;45474;-72
2022/12/07 07:55:25;;;;;;;3.85;3.17;;;15.80;46.40;;;;;;5086532;28;45468;-72
2022/12/07 07:57:52;;;;;;;4.40;2.88;;;15.90;46.30;;;;;;5086535;28;45319;-72
2022/12/07 08:00:20;;;;;;;4.25;2.80;;;16.00;46.10;;;;;;5086756;28;45395;-72
2022/12/07 08:02:48;;;;;;;3.25;2.95;;;16.10;46.00;;;;;;5087192;28;45622;-72
2022/12/07 08:05:15;;;;;;;4.35;2.90;;;16.20;45.80;;;;;;5086419;28;45250;-72
2022/12/07 08:07:43;;;;;;;2.70;2.50;;;16.20;45.60;;;;;;5085950;28;45334;-72
2022/12/07 08:10:11;;;;;;;2.70;2.50;;;16.30;45.50;;;;;;5086878;28;45427;-72
2022/12/07 08:13:10;;;;;;;3.10;2.53;;;16.30;45.50;;;;;;5086960;28;45542;-72
2022/12/07 08:15:26;;;;;;;3.53;2.50;;;16.30;45.40;;;;;;5095457;27;45581;-72
2022/12/07 08:17:54;;;;;;;3.67;2.67;;;16.30;45.30;;;;;;5106679;27;45314;-72
2022/12/07 08:20:21;;;;;;;2.90;2.60;;;16.30;45.20;;;;;;5106968;27;45164;-72
2022/12/07 08:22:48;;;;;;;4.13;2.85;;;16.30;45.10;;;;;;5107052;27;45199;-72
2022/12/07 08:25:15;;;;;;;2.72;2.20;;;16.30;45.20;;;;;;5106838;27;46775;-72
2022/12/07 08:27:42;;;;;;;3.60;2.55;;;16.30;45.20;;;;;;5106572;27;45387;-72
2022/12/07 08:30:09;;;;;;;3.00;2.70;;;16.30;45.10;;;;;;5107183;27;45256;-72
2022/12/07 08:32:36;;;;;;;2.72;2.50;;;16.30;45.10;;;;;;5107004;27;45174;-72
2022/12/07 08:35:05;;;;;;;3.53;2.55;;;16.30;45.20;;;;;;5106506;27;45512;-72
2022/12/07 08:37:32;;;;;;;2.95;2.50;;;16.30;45.20;;;;;;5102859;27;45336;-72
2022/12/07 08:39:59;;;;;;;3.13;2.50;;;16.30;45.20;;;;;;5085898;28;45358;-72
2022/12/07 08:42:29;;;;;;;3.58;2.42;;;16.30;45.20;;;;;;5086501;28;45180;-72
2022/12/07 08:44:56;;;;;;;3.95;2.40;;;16.30;45.30;;;;;;5085914;28;46640;-72
2022/12/07 08:47:23;;;;;;;3.00;2.50;;;16.30;45.30;;;;;;5098591;27;45434;-73
2022/12/07 08:49:50;;;;;;;3.40;2.45;;;16.30;45.40;;;;;;5106599;27;45412;-72
2022/12/07 08:52:18;;;;;;;2.33;2.10;;;16.20;45.30;;;;;;5106107;27;45264;-72
2022/12/07 08:54:45;;;;;;;2.50;2.30;;;16.20;45.40;;;;;;5106126;27;45629;-72
2022/12/07 08:57:12;;;;;;;3.30;2.40;;;16.20;45.40;;;;;;5109472;27;45316;-72
2022/12/07 08:59:39;;;;;;;2.75;2.55;;;16.20;45.50;;;;;;5109652;27;45291;-72
2022/12/07 09:02:06;;;;;;;4.00;2.70;;;16.20;45.50;;;;;;5110300;27;45375;-73
2022/12/07 09:04:33;;;;;;;3.03;2.38;;;16.10;45.50;;;;;;5109795;27;47675;-72
2022/12/07 09:06:59;;;;;;;3.25;2.72;;;16.10;45.50;;;;;;5109392;27;45313;-73
2022/12/07 09:09:28;;;;;;;2.15;1.95;;;16.10;45.60;;;;;;5100102;27;45442;-72
2022/12/07 09:11:55;;;;;;;2.50;2.30;;;16.10;45.60;;;;;;5084626;28;45512;-72
2022/12/07 09:14:22;;;;;;;4.10;2.78;;;16.00;45.60;;;;;;5077891;27;46951;-72
2022/12/07 09:16:49;;;;;;;3.10;2.80;;;16.00;45.70;;;;;;5080235;27;45228;-72
2022/12/07 09:19:15;;;;;;;3.30;2.33;;;16.00;45.70;;;;;;5076285;28;45237;-72
2022/12/07 09:21:42;;;;;;;2.83;2.40;;;16.00;45.70;;;;;;5077592;28;45383;-72
2022/12/07 09:24:09;;;;;;;2.70;2.50;;;16.00;45.80;;;;;;5079060;28;46390;-72
2022/12/07 09:26:39;;;;;;;2.70;2.50;;;16.00;45.80;;;;;;5088600;28;45225;-72
2022/12/07 09:29:05;;;;;;;3.38;2.72;;;16.00;45.80;;;;;;5088802;28;45226;-72
2022/12/07 09:31:32;;;;;;;3.45;2.45;;;16.00;45.80;;;;;;5081972;28;45685;-72
2022/12/07 09:34:00;;;;;;;3.85;3.10;;;15.90;45.70;;;;;;5077072;28;45442;-72
2022/12/07 09:36:27;;;;;;;3.50;2.83;;;15.90;45.70;;;;;;5077883;28;45332;-72
2022/12/07 09:38:54;;;;;;;3.25;2.70;;;15.90;45.80;;;;;;5069913;28;45431;-73
2022/12/07 09:41:21;;;;;;;2.75;2.50;;;16.00;45.80;;;;;;5083289;28;45646;-71
2022/12/07 09:43:49;;;;;;;2.92;2.60;;;16.00;45.60;;;;;;5077114;28;45310;-72
2022/12/07 09:46:17;;;;;;;3.22;2.38;;;16.10;45.60;;;;;;5091685;27;45399;-72
2022/12/07 09:48:44;;;;;;;3.10;2.47;;;16.20;45.50;;;;;;5086028;27;45289;-72
2022/12/07 09:51:14;;;;;;;2.60;2.38;;;16.30;45.40;;;;;;5084274;28;45539;-73
2022/12/07 09:53:41;;;;;;;2.83;2.38;;;16.30;45.30;;;;;;5076519;28;45408;-72
2022/12/07 09:56:10;;;;;;;4.53;2.45;;;16.40;45.30;;;;;;5087996;28;45335;-72
2022/12/07 09:58:37;;;;;;;2.55;2.33;;;16.40;45.40;;;;;;5073266;28;45296;-72
2022/12/07 10:01:11;;;;;;;2.33;2.10;;;16.40;45.10;;;;;;5085123;28;45406;-73
2022/12/07 10:03:40;;;;;;;2.63;2.35;;;16.50;45.10;;;;;;5085810;28;46614;-71
2022/12/07 10:06:07;;;;;;;4.28;2.50;;;16.50;45.00;;;;;;5068729;28;45121;-71
2022/12/07 10:08:34;;;;;;;2.58;2.38;;;16.50;44.90;;;;;;5082511;28;45177;-72
2022/12/07 10:11:03;;;;;;;3.88;2.60;;;16.60;44.80;;;;;;5088079;28;45185;-71
2022/12/07 10:13:35;;;;;;;2.85;2.55;;;16.60;44.80;;;;;;5087643;28;47071;-72
2022/12/07 10:16:02;;;;;;;2.05;1.95;;;16.60;44.60;;;;;;5103066;27;45323;-72
2022/12/07 10:18:32;;;;;;;2.00;1.90;;;16.70;44.50;;;;;;5108344;27;45240;-71
2022/12/07 10:21:07;;;;;;;2.15;1.95;;;16.70;44.50;;;;;;5108626;27;45195;-72
2022/12/07 10:23:34;;;;;;;2.30;2.10;;;16.80;44.40;;;;;;5108113;27;46636;-72
2022/12/07 10:26:02;;;;;;;2.17;1.95;;;16.80;44.30;;;;;;5107863;27;45279;-72
2022/12/07 10:28:35;;;;;;;2.45;2.15;;;16.80;44.20;;;;;;5107883;27;45318;-72
2022/12/07 10:31:03;;;;;;;2.50;2.30;;;16.90;44.10;;;;;;5108864;27;45415;-71
2022/12/07 10:33:35;;;;;;;2.10;1.90;;;16.90;44.10;;;;;;5108282;27;45703;-73
2022/12/07 10:36:17;;;;;;;2.38;2.17;;;16.90;43.90;;;;;;5108449;27;45374;-72
2022/12/07 10:38:45;;;;;;;2.90;2.13;;;16.90;43.90;;;;;;5108131;27;45157;-72
2022/12/07 10:41:12;;;;;;;2.65;2.20;;;16.90;43.80;;;;;;5106024;27;45359;-73
2022/12/07 10:43:46;;;;;;;2.35;2.15;;;16.90;43.90;;;;;;5086865;28;45658;-73
2022/12/07 10:46:41;;;;;;;2.08;1.90;;;16.90;43.90;;;;;;5086459;27;45484;-73
2022/12/07 10:49:49;;;;;;;2.33;2.03;;;17.00;43.90;;;;;;5088691;27;45275;-72
2022/12/07 10:52:19;;;;;;;2.60;2.40;;;17.00;43.70;;;;;;5070906;28;45468;-72
2022/12/07 10:54:49;;;;;;;1.90;1.80;;;17.10;43.70;;;;;;5085693;28;46372;-72
2022/12/07 10:57:33;;;;;;;2.13;1.92;;;17.10;43.50;;;;;;5090490;27;45515;-72
2022/12/07 11:00:03;;;;;;;2.30;2.10;;;17.20;43.30;;;;;;5086345;28;45384;-72
2022/12/07 11:02:41;;;;;;;3.13;2.15;;;17.20;43.20;;;;;;5085629;28;45269;-72
2022/12/07 11:05:18;;;;;;;2.10;1.70;;;17.30;43.20;;;;;;5087038;28;46867;-72
2022/12/07 11:07:49;;;;;;;2.00;1.90;;;17.30;43.20;;;;;;5087130;28;45390;-72
2022/12/07 11:10:18;;;;;;;2.35;1.85;;;17.30;43.20;;;;;;5086650;28;45277;-72
2022/12/07 11:12:53;;;;;;;2.30;2.10;;;17.30;43.00;;;;;;5075535;28;45563;-72
2022/12/07 11:15:23;;;;;;;2.05;1.95;;;17.30;43.00;;;;;;5090672;27;46916;-72
2022/12/07 11:17:53;;;;;;;2.20;2.00;;;17.30;42.80;;;;;;5086786;27;45152;-71
2022/12/07 11:20:30;;;;;;;1.70;1.60;;;17.30;43.20;;;;;;5085198;28;45324;-72
2022/12/07 11:23:00;;;;;;;1.60;1.50;;;17.20;43.50;;;;;;5087135;28;45252;-73
2022/12/07 11:25:30;;;;;;;2.28;2.08;;;17.20;43.30;;;;;;5085115;28;45914;-73
2022/12/07 11:28:11;;;;;;;1.73;1.63;;;17.20;43.10;;;;;;5086747;28;45241;-72
2022/12/07 11:30:41;;;;;;;1.90;1.75;;;17.10;43.00;;;;;;5087422;28;45541;-72
2022/12/07 11:33:16;;;;;;;1.70;1.60;;;17.10;43.20;;;;;;5086902;28;45469;-72
2022/12/07 11:35:55;;;;;;;2.13;1.90;;;17.10;43.20;;;;;;5086772;28;46068;-72
2022/12/07 11:38:24;;;;;;;3.40;1.95;;;17.10;43.00;;;;;;5087149;28;45230;-73
2022/12/07 11:40:52;;;;;;;1.77;1.67;;;17.10;42.90;;;;;;5086428;28;45285;-72
2022/12/07 11:43:22;;;;;;;2.20;1.88;;;17.00;43.00;;;;;;5087291;28;45181;-72
2022/12/07 11:45:53;;;;;;;2.03;1.67;;;17.10;43.00;;;;;;5085925;28;45623;-72
2022/12/07 11:48:23;;;;;;;1.73;1.63;;;17.00;43.00;;;;;;5083834;28;45430;-72
2022/12/07 11:50:53;;;;;;;1.80;1.70;;;17.00;43.50;;;;;;5087074;28;45351;-72
2022/12/07 11:53:21;;;;;;;1.55;1.45;;;17.00;43.60;;;;;;5087177;28;45180;-72
2022/12/07 11:55:51;;;;;;;1.70;1.60;;;17.00;43.60;;;;;;5086071;28;47300;-71
2022/12/07 11:58:41;;;;;;;1.65;1.55;;;17.00;43.90;;;;;;5085246;28;45337;-72
2022/12/07 12:01:16;;;;;;;2.40;1.42;;;16.90;43.90;;;;;;5087207;28;45290;-73
2022/12/07 12:03:44;;;;;;;1.77;1.60;;;16.90;43.90;;;;;;5066827;28;45317;-73
2022/12/07 12:06:13;;;;;;;1.50;1.38;;;16.90;43.80;;;;;;5077093;28;45300;-72
2022/12/07 12:08:40;;;;;;;1.13;1.10;;;16.90;44.00;;;;;;5086533;28;45246;-72
2022/12/07 12:11:12;;;;;;;1.35;1.27;;;16.80;44.00;;;;;;5086635;28;45284;-72
2022/12/07 12:14:04;;;;;;;1.70;1.60;;;16.80;44.00;;;;;;5086709;28;45185;-72
2022/12/07 12:16:45;;;;;;;2.58;1.50;;;16.80;44.10;;;;;;5097812;27;46374;-72
2022/12/07 12:19:19;;;;;;;1.48;1.38;;;16.70;44.30;;;;;;5081281;28;45501;-72
2022/12/07 12:21:47;;;;;;;2.58;1.50;;;16.70;44.50;;;;;;5084935;28;45194;-72
2022/12/07 12:24:15;;;;;;;1.60;1.50;;;16.70;44.70;;;;;;5084235;28;45351;-71
2022/12/07 12:26:48;;;;;;;1.40;1.30;;;16.70;44.80;;;;;;5065889;28;45474;-72
2022/12/07 12:29:21;;;;;;;2.15;1.63;;;16.60;44.80;;;;;;5078624;28;45402;-71
2022/12/07 12:31:48;;;;;;;1.65;1.55;;;16.60;44.90;;;;;;5085739;27;45238;-72
2022/12/07 12:34:32;;;;;;;1.70;1.40;;;16.60;44.70;;;;;;5090419;28;45305;-72
2022/12/07 12:37:00;;;;;;;1.38;1.27;;;16.60;44.80;;;;;;5083238;28;46726;-72
2022/12/07 12:39:28;;;;;;;2.30;1.80;;;16.50;45.00;;;;;;5076772;28;45301;-73
2022/12/07 12:42:08;;;;;;;1.60;1.48;;;16.50;45.10;;;;;;5078322;28;45545;-72
2022/12/07 12:45:14;;;;;;;1.40;1.33;;;16.50;45.20;;;;;;5087991;28;45318;-72
2022/12/07 12:47:43;;;;;;;1.92;1.50;;;16.50;45.40;;;;;;5091619;27;45669;-72
2022/12/07 12:50:21;;;;;;;1.73;1.45;;;16.50;45.50;;;;;;5081297;28;45231;-72
2022/12/07 12:53:22;;;;;;;1.60;1.35;;;16.50;45.50;;;;;;5072333;28;45360;-72
2022/12/07 12:56:12;;;;;;;1.90;1.67;;;16.60;45.40;;;;;;5076407;28;45492;-72
2022/12/07 12:58:40;;;;;;;1.85;1.58;;;16.70;45.10;;;;;;5080612;28;47567;-72
2022/12/07 13:01:48;;;;;;;1.60;1.50;;;16.70;45.10;;;;;;5086452;28;45396;-72
2022/12/07 13:04:59;;;;;;;1.90;1.55;;;16.80;44.90;;;;;;5083517;28;45403;-72
2022/12/07 13:07:52;;;;;;;1.42;1.33;;;16.90;44.80;;;;;;5086990;28;45292;-71